sensor_id;sensor_type;location;lat;lon;timestamp;temperature;humidity
41882;DHT22;27562;47.524;12.404;2023-06-26T00:00:53;16.00;98.60
41882;DHT22;27562;47.524;12.404;2023-06-26T00:03:18;16.00;99.00
41882;DHT22;27562;47.524;12.404;2023-06-26T00:05:44;16.00;99.50
41882;DHT22;27562;47.524;12.404;2023-06-26T00:08:10;15.90;99.80
41882;DHT22;27562;47.524;12.404;2023-06-26T00:10:35;15.90;99.90
41882;DHT22;27562;47.524;12.404;2023-06-26T00:13:01;15.90;99.90
41882;DHT22;27562;47.524;12.404;2023-06-26T00:15:27;15.90;99.90
41882;DHT22;27562;47.524;12.404;2023-06-26T00:17:57;15.90;99.90
41882;DHT22;27562;47.524;12.404;2023-06-26T00:20:23;15.80;99.90
41882;DHT22;27562;47.524;12.404;2023-06-26T00:22:50;15.80;99.90
41882;DHT22;27562;47.524;12.404;2023-06-26T00:25:16;15.80;99.90
41882;DHT22;27562;47.524;12.404;2023-06-26T00:27:41;15.80;99.90
41882;DHT22;27562;47.524;12.404;2023-06-26T00:30:08;15.70;99.90
41882;DHT22;27562;47.524;12.404;2023-06-26T00:32:34;15.70;99.90
41882;DHT22;27562;47.524;12.404;2023-06-26T00:34:59;15.50;99.90
41882;DHT22;27562;47.524;12.404;2023-06-26T00:37:25;15.40;99.90
41882;DHT22;27562;47.524;12.404;2023-06-26T00:39:50;15.40;99.90
41882;DHT22;27562;47.524;12.404;2023-06-26T00:42:16;15.30;99.90
41882;DHT22;27562;47.524;12.404;2023-06-26T00:44:42;15.20;99.90
41882;DHT22;27562;47.524;12.404;2023-06-26T00:47:08;15.20;99.90
41882;DHT22;27562;47.524;12.404;2023-06-26T00:49:34;15.20;99.90
41882;DHT22;27562;47.524;12.404;2023-06-26T00:52:00;15.20;99.90
41882;DHT22;27562;47.524;12.404;2023-06-26T00:54:26;15.20;99.90
41882;DHT22;27562;47.524;12.404;2023-06-26T00:56:52;15.20;99.90
41882;DHT22;27562;47.524;12.404;2023-06-26T00:59:18;15.20;99.90
41882;DHT22;27562;47.524;12.404;2023-06-26T01:01:43;15.20;99.90
41882;DHT22;27562;47.524;12.404;2023-06-26T01:04:09;15.20;99.90
41882;DHT22;27562;47.524;12.404;2023-06-26T01:06:46;15.20;99.90
41882;DHT22;27562;47.524;12.404;2023-06-26T01:09:16;15.10;99.90
41882;DHT22;27562;47.524;12.404;2023-06-26T01:11:43;15.10;99.90
41882;DHT22;27562;47.524;12.404;2023-06-26T01:14:08;15.00;99.90
41882;DHT22;27562;47.524;12.404;2023-06-26T01:16:35;15.00;99.90
41882;DHT22;27562;47.524;12.404;2023-06-26T01:19:01;15.00;99.90
41882;DHT22;27562;47.524;12.404;2023-06-26T01:21:27;14.90;99.90
41882;DHT22;27562;47.524;12.404;2023-06-26T01:24:16;14.90;99.90
41882;DHT22;27562;47.524;12.404;2023-06-26T01:26:48;14.90;99.90
41882;DHT22;27562;47.524;12.404;2023-06-26T01:29:15;14.90;99.90
41882;DHT22;27562;47.524;12.404;2023-06-26T01:31:41;14.80;99.90
41882;DHT22;27562;47.524;12.404;2023-06-26T01:34:07;14.80;99.90
41882;DHT22;27562;47.524;12.404;2023-06-26T01:36:33;14.80;99.90
41882;DHT22;27562;47.524;12.404;2023-06-26T01:38:59;14.70;99.90
41882;DHT22;27562;47.524;12.404;2023-06-26T01:41:25;14.70;99.90
41882;DHT22;27562;47.524;12.404;2023-06-26T01:51:46;14.60;99.90
41882;DHT22;27562;47.524;12.404;2023-06-26T01:54:18;14.50;99.90
41882;DHT22;27562;47.524;12.404;2023-06-26T01:56:46;14.50;99.90
41882;DHT22;27562;47.524;12.404;2023-06-26T01:59:15;14.40;99.90
41882;DHT22;27562;47.524;12.404;2023-06-26T02:01:42;14.40;99.90
41882;DHT22;27562;47.524;12.404;2023-06-26T02:04:08;14.30;99.90
41882;DHT22;27562;47.524;12.404;2023-06-26T02:06:33;14.30;99.90
41882;DHT22;27562;47.524;12.404;2023-06-26T02:08:59;14.30;99.90
41882;DHT22;27562;47.524;12.404;2023-06-26T02:11:25;14.30;99.90
41882;DHT22;27562;47.524;12.404;2023-06-26T02:13:51;14.20;99.90
41882;DHT22;27562;47.524;12.404;2023-06-26T02:16:17;14.10;99.90
41882;DHT22;27562;47.524;12.404;2023-06-26T02:18:42;14.10;99.90
41882;DHT22;27562;47.524;12.404;2023-06-26T02:21:09;14.10;99.90
41882;DHT22;27562;47.524;12.404;2023-06-26T02:23:35;14.10;99.90
41882;DHT22;27562;47.524;12.404;2023-06-26T02:26:00;14.10;99.90
41882;DHT22;27562;47.524;12.404;2023-06-26T02:28:26;14.00;99.90
41882;DHT22;27562;47.524;12.404;2023-06-26T02:30:52;13.90;99.90
41882;DHT22;27562;47.524;12.404;2023-06-26T02:33:17;13.90;99.90
41882;DHT22;27562;47.524;12.404;2023-06-26T02:35:43;13.90;99.90
41882;DHT22;27562;47.524;12.404;2023-06-26T02:38:09;13.80;99.90
41882;DHT22;27562;47.524;12.404;2023-06-26T02:40:34;13.80;99.90
41882;DHT22;27562;47.524;12.404;2023-06-26T02:43:00;13.60;99.90
41882;DHT22;27562;47.524;12.404;2023-06-26T02:45:26;13.50;99.90
41882;DHT22;27562;47.524;12.404;2023-06-26T02:47:51;13.50;99.90
41882;DHT22;27562;47.524;12.404;2023-06-26T02:50:17;13.50;99.90
41882;DHT22;27562;47.524;12.404;2023-06-26T02:52:42;13.50;99.90
41882;DHT22;27562;47.524;12.404;2023-06-26T02:55:08;13.50;99.90
41882;DHT22;27562;47.524;12.404;2023-06-26T02:57:34;13.50;99.90
41882;DHT22;27562;47.524;12.404;2023-06-26T02:59:59;13.50;99.90
41882;DHT22;27562;47.524;12.404;2023-06-26T03:02:25;13.50;99.90
41882;DHT22;27562;47.524;12.404;2023-06-26T03:04:51;13.50;99.90
41882;DHT22;27562;47.524;12.404;2023-06-26T03:07:18;13.50;99.90
41882;DHT22;27562;47.524;12.404;2023-06-26T03:09:43;13.50;99.90
41882;DHT22;27562;47.524;12.404;2023-06-26T03:12:09;13.50;99.90
41882;DHT22;27562;47.524;12.404;2023-06-26T03:14:35;13.40;99.90
41882;DHT22;27562;47.524;12.404;2023-06-26T03:17:00;13.40;99.90
41882;DHT22;27562;47.524;12.404;2023-06-26T03:19:29;13.40;99.90
41882;DHT22;27562;47.524;12.404;2023-06-26T03:21:55;13.30;99.90
41882;DHT22;27562;47.524;12.404;2023-06-26T03:24:20;13.30;99.90
41882;DHT22;27562;47.524;12.404;2023-06-26T03:26:46;13.30;99.90
41882;DHT22;27562;47.524;12.404;2023-06-26T03:29:12;13.30;99.90
41882;DHT22;27562;47.524;12.404;2023-06-26T03:31:38;13.20;99.90
41882;DHT22;27562;47.524;12.404;2023-06-26T03:34:03;13.20;99.90
41882;DHT22;27562;47.524;12.404;2023-06-26T03:36:29;13.10;99.90
41882;DHT22;27562;47.524;12.404;2023-06-26T03:38:55;13.10;99.90
41882;DHT22;27562;47.524;12.404;2023-06-26T03:41:23;13.10;99.90
41882;DHT22;27562;47.524;12.404;2023-06-26T03:43:49;13.00;99.90
41882;DHT22;27562;47.524;12.404;2023-06-26T03:46:14;13.00;99.90
41882;DHT22;27562;47.524;12.404;2023-06-26T03:48:40;13.00;99.90
41882;DHT22;27562;47.524;12.404;2023-06-26T03:51:06;13.00;99.90
41882;DHT22;27562;47.524;12.404;2023-06-26T03:53:33;13.00;99.90
41882;DHT22;27562;47.524;12.404;2023-06-26T03:55:59;13.00;99.90
41882;DHT22;27562;47.524;12.404;2023-06-26T03:58:24;13.00;99.90
41882;DHT22;27562;47.524;12.404;2023-06-26T04:00:51;13.00;99.90
41882;DHT22;27562;47.524;12.404;2023-06-26T04:03:17;13.00;99.90
41882;DHT22;27562;47.524;12.404;2023-06-26T04:05:42;13.00;99.90
41882;DHT22;27562;47.524;12.404;2023-06-26T04:08:08;13.10;99.90
41882;DHT22;27562;47.524;12.404;2023-06-26T04:10:34;13.10;99.90
41882;DHT22;27562;47.524;12.404;2023-06-26T04:13:01;13.10;99.90
41882;DHT22;27562;47.524;12.404;2023-06-26T04:15:27;13.10;99.90
41882;DHT22;27562;47.524;12.404;2023-06-26T04:17:53;13.10;99.90
41882;DHT22;27562;47.524;12.404;2023-06-26T04:20:19;13.00;99.90
41882;DHT22;27562;47.524;12.404;2023-06-26T04:22:44;13.10;99.90
41882;DHT22;27562;47.524;12.404;2023-06-26T04:25:10;13.10;99.90
41882;DHT22;27562;47.524;12.404;2023-06-26T04:27:37;13.00;99.90
41882;DHT22;27562;47.524;12.404;2023-06-26T04:30:03;13.10;99.90
41882;DHT22;27562;47.524;12.404;2023-06-26T04:32:30;13.10;99.90
41882;DHT22;27562;47.524;12.404;2023-06-26T04:34:56;13.10;99.90
41882;DHT22;27562;47.524;12.404;2023-06-26T04:37:22;13.10;99.90
41882;DHT22;27562;47.524;12.404;2023-06-26T04:39:48;13.10;99.90
41882;DHT22;27562;47.524;12.404;2023-06-26T04:42:14;13.10;99.90
41882;DHT22;27562;47.524;12.404;2023-06-26T04:44:40;13.20;99.90
41882;DHT22;27562;47.524;12.404;2023-06-26T04:47:07;13.20;99.90
41882;DHT22;27562;47.524;12.404;2023-06-26T04:49:33;13.20;99.90
41882;DHT22;27562;47.524;12.404;2023-06-26T04:51:59;13.20;99.90
41882;DHT22;27562;47.524;12.404;2023-06-26T04:54:26;13.20;99.90
41882;DHT22;27562;47.524;12.404;2023-06-26T04:56:52;13.30;99.90
41882;DHT22;27562;47.524;12.404;2023-06-26T04:59:18;13.30;99.90
41882;DHT22;27562;47.524;12.404;2023-06-26T05:01:44;13.30;99.90
41882;DHT22;27562;47.524;12.404;2023-06-26T05:04:14;13.30;99.90
41882;DHT22;27562;47.524;12.404;2023-06-26T05:06:41;13.40;99.90
41882;DHT22;27562;47.524;12.404;2023-06-26T05:09:07;13.40;99.90
41882;DHT22;27562;47.524;12.404;2023-06-26T05:11:33;13.40;99.90
41882;DHT22;27562;47.524;12.404;2023-06-26T05:13:58;13.50;99.90
41882;DHT22;27562;47.524;12.404;2023-06-26T05:16:24;13.50;99.90
41882;DHT22;27562;47.524;12.404;2023-06-26T05:18:49;13.50;99.90
41882;DHT22;27562;47.524;12.404;2023-06-26T05:21:16;13.60;99.90
41882;DHT22;27562;47.524;12.404;2023-06-26T05:23:42;13.60;99.90
41882;DHT22;27562;47.524;12.404;2023-06-26T05:26:10;13.60;99.90
41882;DHT22;27562;47.524;12.404;2023-06-26T05:28:36;13.60;99.90
41882;DHT22;27562;47.524;12.404;2023-06-26T05:31:03;13.60;99.90
41882;DHT22;27562;47.524;12.404;2023-06-26T05:33:30;13.70;99.90
41882;DHT22;27562;47.524;12.404;2023-06-26T05:35:56;13.70;99.90
41882;DHT22;27562;47.524;12.404;2023-06-26T05:38:24;13.80;99.90
41882;DHT22;27562;47.524;12.404;2023-06-26T05:40:50;13.90;99.90
41882;DHT22;27562;47.524;12.404;2023-06-26T05:43:16;14.00;99.90
41882;DHT22;27562;47.524;12.404;2023-06-26T05:45:42;14.10;99.90
41882;DHT22;27562;47.524;12.404;2023-06-26T05:48:07;14.20;99.90
41882;DHT22;27562;47.524;12.404;2023-06-26T05:50:33;14.30;99.90
41882;DHT22;27562;47.524;12.404;2023-06-26T05:52:59;14.40;99.90
41882;DHT22;27562;47.524;12.404;2023-06-26T05:55:28;14.40;99.90
41882;DHT22;27562;47.524;12.404;2023-06-26T05:57:57;14.50;99.90
41882;DHT22;27562;47.524;12.404;2023-06-26T06:00:25;14.60;99.90
41882;DHT22;27562;47.524;12.404;2023-06-26T06:02:52;14.70;99.90
41882;DHT22;27562;47.524;12.404;2023-06-26T06:05:20;14.80;99.90
41882;DHT22;27562;47.524;12.404;2023-06-26T06:07:46;14.90;99.90
41882;DHT22;27562;47.524;12.404;2023-06-26T06:10:12;15.00;99.90
41882;DHT22;27562;47.524;12.404;2023-06-26T06:12:37;15.00;99.90
41882;DHT22;27562;47.524;12.404;2023-06-26T06:15:04;15.10;99.90
41882;DHT22;27562;47.524;12.404;2023-06-26T06:17:30;15.20;99.90
41882;DHT22;27562;47.524;12.404;2023-06-26T06:19:56;15.30;99.90
41882;DHT22;27562;47.524;12.404;2023-06-26T06:22:21;15.40;99.90
41882;DHT22;27562;47.524;12.404;2023-06-26T06:24:49;15.40;99.90
41882;DHT22;27562;47.524;12.404;2023-06-26T06:27:15;15.60;99.90
41882;DHT22;27562;47.524;12.404;2023-06-26T06:29:41;15.70;99.90
41882;DHT22;27562;47.524;12.404;2023-06-26T06:32:07;15.80;99.90
41882;DHT22;27562;47.524;12.404;2023-06-26T06:34:32;15.90;99.90
41882;DHT22;27562;47.524;12.404;2023-06-26T06:36:58;16.10;99.90
41882;DHT22;27562;47.524;12.404;2023-06-26T06:39:24;16.20;99.90
41882;DHT22;27562;47.524;12.404;2023-06-26T06:41:50;16.20;99.90
41882;DHT22;27562;47.524;12.404;2023-06-26T06:44:15;16.30;99.90
41882;DHT22;27562;47.524;12.404;2023-06-26T06:46:41;16.40;99.90
41882;DHT22;27562;47.524;12.404;2023-06-26T06:49:08;16.50;99.90
41882;DHT22;27562;47.524;12.404;2023-06-26T06:51:34;16.70;99.90
41882;DHT22;27562;47.524;12.404;2023-06-26T06:54:00;16.80;99.90
41882;DHT22;27562;47.524;12.404;2023-06-26T06:56:26;16.90;99.90
41882;DHT22;27562;47.524;12.404;2023-06-26T06:58:51;17.00;99.90
41882;DHT22;27562;47.524;12.404;2023-06-26T07:01:17;17.10;99.90
41882;DHT22;27562;47.524;12.404;2023-06-26T07:03:43;17.30;99.90
41882;DHT22;27562;47.524;12.404;2023-06-26T07:06:08;17.40;99.90
41882;DHT22;27562;47.524;12.404;2023-06-26T07:08:34;17.60;99.90
41882;DHT22;27562;47.524;12.404;2023-06-26T07:11:00;17.70;99.90
41882;DHT22;27562;47.524;12.404;2023-06-26T07:13:26;17.90;99.90
41882;DHT22;27562;47.524;12.404;2023-06-26T07:15:52;18.00;99.90
41882;DHT22;27562;47.524;12.404;2023-06-26T07:18:18;18.20;99.90
41882;DHT22;27562;47.524;12.404;2023-06-26T07:20:43;18.30;99.90
41882;DHT22;27562;47.524;12.404;2023-06-26T07:23:09;18.40;99.90
41882;DHT22;27562;47.524;12.404;2023-06-26T07:25:35;18.60;99.90
41882;DHT22;27562;47.524;12.404;2023-06-26T07:28:01;18.80;99.90
41882;DHT22;27562;47.524;12.404;2023-06-26T07:30:27;18.90;99.90
41882;DHT22;27562;47.524;12.404;2023-06-26T07:32:53;19.10;99.90
41882;DHT22;27562;47.524;12.404;2023-06-26T07:35:19;19.30;99.90
41882;DHT22;27562;47.524;12.404;2023-06-26T07:37:44;19.40;99.90
41882;DHT22;27562;47.524;12.404;2023-06-26T07:40:10;19.60;99.90
41882;DHT22;27562;47.524;12.404;2023-06-26T07:42:40;19.80;99.90
41882;DHT22;27562;47.524;12.404;2023-06-26T07:45:06;20.00;99.90
41882;DHT22;27562;47.524;12.404;2023-06-26T07:47:36;20.10;99.90
41882;DHT22;27562;47.524;12.404;2023-06-26T07:50:02;20.30;99.90
41882;DHT22;27562;47.524;12.404;2023-06-26T07:52:28;20.40;99.90
41882;DHT22;27562;47.524;12.404;2023-06-26T07:54:56;20.60;99.90
41882;DHT22;27562;47.524;12.404;2023-06-26T07:57:22;20.70;99.90
41882;DHT22;27562;47.524;12.404;2023-06-26T07:59:48;20.90;99.90
41882;DHT22;27562;47.524;12.404;2023-06-26T08:02:13;21.10;99.90
41882;DHT22;27562;47.524;12.404;2023-06-26T08:04:39;21.20;99.90
41882;DHT22;27562;47.524;12.404;2023-06-26T08:07:05;21.30;99.90
41882;DHT22;27562;47.524;12.404;2023-06-26T08:09:31;21.50;99.90
41882;DHT22;27562;47.524;12.404;2023-06-26T08:11:57;21.60;99.70
41882;DHT22;27562;47.524;12.404;2023-06-26T08:14:24;21.80;98.80
41882;DHT22;27562;47.524;12.404;2023-06-26T08:16:49;21.90;97.80
41882;DHT22;27562;47.524;12.404;2023-06-26T08:19:17;22.00;98.00
41882;DHT22;27562;47.524;12.404;2023-06-26T08:21:43;22.10;98.40
41882;DHT22;27562;47.524;12.404;2023-06-26T08:24:09;22.20;98.70
41882;DHT22;27562;47.524;12.404;2023-06-26T08:26:36;22.40;98.20
41882;DHT22;27562;47.524;12.404;2023-06-26T08:29:02;22.50;96.30
41882;DHT22;27562;47.524;12.404;2023-06-26T08:31:33;22.70;95.20
41882;DHT22;27562;47.524;12.404;2023-06-26T08:34:00;22.90;98.60
41882;DHT22;27562;47.524;12.404;2023-06-26T08:36:26;23.00;95.90
41882;DHT22;27562;47.524;12.404;2023-06-26T08:38:51;23.10;95.80
41882;DHT22;27562;47.524;12.404;2023-06-26T08:41:17;23.30;95.90
41882;DHT22;27562;47.524;12.404;2023-06-26T08:43:42;23.50;94.00
41882;DHT22;27562;47.524;12.404;2023-06-26T08:46:08;23.60;92.90
41882;DHT22;27562;47.524;12.404;2023-06-26T08:48:35;23.80;93.30
41882;DHT22;27562;47.524;12.404;2023-06-26T08:51:09;23.90;93.20
41882;DHT22;27562;47.524;12.404;2023-06-26T08:53:57;24.10;93.00
41882;DHT22;27562;47.524;12.404;2023-06-26T08:56:27;24.30;92.50
41882;DHT22;27562;47.524;12.404;2023-06-26T08:58:54;24.60;91.50
41882;DHT22;27562;47.524;12.404;2023-06-26T09:01:20;24.80;91.70
41882;DHT22;27562;47.524;12.404;2023-06-26T09:03:45;25.00;90.20
41882;DHT22;27562;47.524;12.404;2023-06-26T09:06:11;25.10;90.70
41882;DHT22;27562;47.524;12.404;2023-06-26T09:08:37;25.30;89.80
41882;DHT22;27562;47.524;12.404;2023-06-26T09:11:02;25.40;87.10
41882;DHT22;27562;47.524;12.404;2023-06-26T09:13:28;25.60;88.20
41882;DHT22;27562;47.524;12.404;2023-06-26T09:15:54;25.80;88.70
41882;DHT22;27562;47.524;12.404;2023-06-26T09:18:20;26.00;90.50
41882;DHT22;27562;47.524;12.404;2023-06-26T09:20:46;26.20;90.40
41882;DHT22;27562;47.524;12.404;2023-06-26T09:23:12;26.40;89.70
41882;DHT22;27562;47.524;12.404;2023-06-26T09:25:38;26.50;85.80
41882;DHT22;27562;47.524;12.404;2023-06-26T09:28:05;26.50;80.30
41882;DHT22;27562;47.524;12.404;2023-06-26T09:30:33;26.60;79.60
41882;DHT22;27562;47.524;12.404;2023-06-26T09:33:15;26.70;76.90
41882;DHT22;27562;47.524;12.404;2023-06-26T09:35:41;26.70;74.30
41882;DHT22;27562;47.524;12.404;2023-06-26T09:38:07;26.90;75.10
41882;DHT22;27562;47.524;12.404;2023-06-26T09:40:33;27.10;75.00
41882;DHT22;27562;47.524;12.404;2023-06-26T09:43:07;27.10;72.10
41882;DHT22;27562;47.524;12.404;2023-06-26T09:45:34;27.00;69.90
41882;DHT22;27562;47.524;12.404;2023-06-26T09:48:03;27.00;69.30
41882;DHT22;27562;47.524;12.404;2023-06-26T09:50:29;27.10;70.70
41882;DHT22;27562;47.524;12.404;2023-06-26T09:52:55;27.20;71.30
41882;DHT22;27562;47.524;12.404;2023-06-26T09:55:21;27.20;68.70
41882;DHT22;27562;47.524;12.404;2023-06-26T09:57:49;27.20;69.10
41882;DHT22;27562;47.524;12.404;2023-06-26T10:00:15;27.30;68.10
41882;DHT22;27562;47.524;12.404;2023-06-26T10:02:41;27.30;69.90
41882;DHT22;27562;47.524;12.404;2023-06-26T10:05:07;27.20;69.80
41882;DHT22;27562;47.524;12.404;2023-06-26T10:07:33;27.10;69.20
41882;DHT22;27562;47.524;12.404;2023-06-26T10:10:02;27.00;71.60
41882;DHT22;27562;47.524;12.404;2023-06-26T10:12:30;27.20;74.20
41882;DHT22;27562;47.524;12.404;2023-06-26T10:14:57;27.50;68.70
41882;DHT22;27562;47.524;12.404;2023-06-26T10:17:25;27.60;72.70
41882;DHT22;27562;47.524;12.404;2023-06-26T10:19:54;27.80;70.70
41882;DHT22;27562;47.524;12.404;2023-06-26T10:22:24;27.80;67.50
41882;DHT22;27562;47.524;12.404;2023-06-26T10:24:50;27.80;71.50
41882;DHT22;27562;47.524;12.404;2023-06-26T10:27:20;27.90;64.00
41882;DHT22;27562;47.524;12.404;2023-06-26T10:29:58;27.80;65.60
41882;DHT22;27562;47.524;12.404;2023-06-26T10:32:26;27.80;68.40
41882;DHT22;27562;47.524;12.404;2023-06-26T10:34:53;27.80;68.00
41882;DHT22;27562;47.524;12.404;2023-06-26T10:37:20;27.70;67.80
41882;DHT22;27562;47.524;12.404;2023-06-26T10:39:51;27.70;67.80
41882;DHT22;27562;47.524;12.404;2023-06-26T10:42:18;27.90;66.70
41882;DHT22;27562;47.524;12.404;2023-06-26T10:44:46;28.20;66.30
41882;DHT22;27562;47.524;12.404;2023-06-26T10:47:29;28.40;66.20
41882;DHT22;27562;47.524;12.404;2023-06-26T10:49:56;28.30;69.70
41882;DHT22;27562;47.524;12.404;2023-06-26T10:52:22;28.40;65.60
41882;DHT22;27562;47.524;12.404;2023-06-26T10:54:47;28.50;64.50
41882;DHT22;27562;47.524;12.404;2023-06-26T10:57:23;28.50;63.40
41882;DHT22;27562;47.524;12.404;2023-06-26T10:59:49;28.60;63.90
41882;DHT22;27562;47.524;12.404;2023-06-26T11:02:50;28.70;62.10
41882;DHT22;27562;47.524;12.404;2023-06-26T11:05:29;28.50;61.00
41882;DHT22;27562;47.524;12.404;2023-06-26T11:08:08;28.50;62.30
41882;DHT22;27562;47.524;12.404;2023-06-26T11:11:03;28.60;63.80
41882;DHT22;27562;47.524;12.404;2023-06-26T11:13:29;28.70;64.00
41882;DHT22;27562;47.524;12.404;2023-06-26T11:15:55;28.90;64.70
41882;DHT22;27562;47.524;12.404;2023-06-26T11:18:22;29.00;63.40
41882;DHT22;27562;47.524;12.404;2023-06-26T11:20:49;29.00;63.40
41882;DHT22;27562;47.524;12.404;2023-06-26T11:23:18;29.10;61.40
41882;DHT22;27562;47.524;12.404;2023-06-26T11:25:47;29.10;64.40
41882;DHT22;27562;47.524;12.404;2023-06-26T11:28:12;29.10;63.20
41882;DHT22;27562;47.524;12.404;2023-06-26T11:30:38;29.10;61.80
41882;DHT22;27562;47.524;12.404;2023-06-26T11:33:10;29.20;63.60
41882;DHT22;27562;47.524;12.404;2023-06-26T11:35:36;29.30;62.30
41882;DHT22;27562;47.524;12.404;2023-06-26T11:38:03;29.20;59.70
41882;DHT22;27562;47.524;12.404;2023-06-26T11:40:37;29.20;60.60
41882;DHT22;27562;47.524;12.404;2023-06-26T11:43:03;29.10;61.70
41882;DHT22;27562;47.524;12.404;2023-06-26T11:45:31;29.00;59.70
41882;DHT22;27562;47.524;12.404;2023-06-26T11:47:57;29.10;62.30
41882;DHT22;27562;47.524;12.404;2023-06-26T11:50:24;29.30;64.30
41882;DHT22;27562;47.524;12.404;2023-06-26T11:52:53;29.60;61.70
41882;DHT22;27562;47.524;12.404;2023-06-26T11:55:20;30.00;60.60
41882;DHT22;27562;47.524;12.404;2023-06-26T11:57:50;30.20;59.30
41882;DHT22;27562;47.524;12.404;2023-06-26T12:00:16;30.30;60.50
41882;DHT22;27562;47.524;12.404;2023-06-26T12:02:44;30.30;58.40
41882;DHT22;27562;47.524;12.404;2023-06-26T12:05:12;30.00;58.70
41882;DHT22;27562;47.524;12.404;2023-06-26T12:07:38;29.80;60.50
41882;DHT22;27562;47.524;12.404;2023-06-26T12:10:05;29.80;60.40
41882;DHT22;27562;47.524;12.404;2023-06-26T12:12:31;30.10;59.60
41882;DHT22;27562;47.524;12.404;2023-06-26T12:14:58;30.30;60.80
41882;DHT22;27562;47.524;12.404;2023-06-26T12:17:25;30.50;60.60
41882;DHT22;27562;47.524;12.404;2023-06-26T12:19:50;30.70;59.80
41882;DHT22;27562;47.524;12.404;2023-06-26T12:22:16;31.00;60.10
41882;DHT22;27562;47.524;12.404;2023-06-26T12:24:43;31.10;59.20
41882;DHT22;27562;47.524;12.404;2023-06-26T12:27:09;31.20;57.50
41882;DHT22;27562;47.524;12.404;2023-06-26T12:29:36;31.30;56.70
41882;DHT22;27562;47.524;12.404;2023-06-26T12:32:01;31.30;56.50
41882;DHT22;27562;47.524;12.404;2023-06-26T12:34:28;31.30;57.80
41882;DHT22;27562;47.524;12.404;2023-06-26T12:36:59;31.20;55.80
41882;DHT22;27562;47.524;12.404;2023-06-26T12:39:24;31.10;56.10
41882;DHT22;27562;47.524;12.404;2023-06-26T12:42:13;31.00;57.80
41882;DHT22;27562;47.524;12.404;2023-06-26T12:44:39;31.10;54.70
41882;DHT22;27562;47.524;12.404;2023-06-26T12:47:04;31.20;55.90
41882;DHT22;27562;47.524;12.404;2023-06-26T12:52:00;31.10;57.30
41882;DHT22;27562;47.524;12.404;2023-06-26T12:54:26;31.30;57.70
41882;DHT22;27562;47.524;12.404;2023-06-26T12:56:52;31.30;55.80
41882;DHT22;27562;47.524;12.404;2023-06-26T12:59:18;31.40;54.20
41882;DHT22;27562;47.524;12.404;2023-06-26T13:01:43;31.20;54.60
41882;DHT22;27562;47.524;12.404;2023-06-26T13:04:09;31.10;54.70
41882;DHT22;27562;47.524;12.404;2023-06-26T13:06:35;30.80;54.70
41882;DHT22;27562;47.524;12.404;2023-06-26T13:09:01;31.00;54.00
41882;DHT22;27562;47.524;12.404;2023-06-26T13:11:30;31.20;54.20
41882;DHT22;27562;47.524;12.404;2023-06-26T13:13:55;31.50;58.10
41882;DHT22;27562;47.524;12.404;2023-06-26T13:16:21;31.70;54.40
41882;DHT22;27562;47.524;12.404;2023-06-26T13:18:46;31.80;51.30
41882;DHT22;27562;47.524;12.404;2023-06-26T13:21:12;31.80;52.40
41882;DHT22;27562;47.524;12.404;2023-06-26T13:23:38;31.80;52.20
41882;DHT22;27562;47.524;12.404;2023-06-26T13:26:04;31.80;53.20
41882;DHT22;27562;47.524;12.404;2023-06-26T13:28:30;31.70;52.80
41882;DHT22;27562;47.524;12.404;2023-06-26T13:30:55;31.80;52.10
41882;DHT22;27562;47.524;12.404;2023-06-26T13:33:21;31.80;54.50
41882;DHT22;27562;47.524;12.404;2023-06-26T13:35:46;31.90;51.60
41882;DHT22;27562;47.524;12.404;2023-06-26T13:38:12;31.70;51.20
41882;DHT22;27562;47.524;12.404;2023-06-26T13:40:38;31.40;51.50
41882;DHT22;27562;47.524;12.404;2023-06-26T13:43:03;31.00;51.20
41882;DHT22;27562;47.524;12.404;2023-06-26T13:45:29;31.00;52.10
41882;DHT22;27562;47.524;12.404;2023-06-26T13:47:54;31.10;53.50
41882;DHT22;27562;47.524;12.404;2023-06-26T13:50:20;31.30;52.10
41882;DHT22;27562;47.524;12.404;2023-06-26T13:52:45;31.40;52.10
41882;DHT22;27562;47.524;12.404;2023-06-26T13:55:11;31.30;52.10
41882;DHT22;27562;47.524;12.404;2023-06-26T13:57:36;31.20;51.90
41882;DHT22;27562;47.524;12.404;2023-06-26T14:00:07;31.00;52.40
41882;DHT22;27562;47.524;12.404;2023-06-26T14:02:33;30.80;51.90
41882;DHT22;27562;47.524;12.404;2023-06-26T14:04:58;30.70;51.30
41882;DHT22;27562;47.524;12.404;2023-06-26T14:07:24;30.70;52.00
41882;DHT22;27562;47.524;12.404;2023-06-26T14:09:50;30.60;51.50
41882;DHT22;27562;47.524;12.404;2023-06-26T14:12:15;30.60;52.20
41882;DHT22;27562;47.524;12.404;2023-06-26T14:14:41;30.70;53.70
41882;DHT22;27562;47.524;12.404;2023-06-26T14:17:07;31.10;54.70
41882;DHT22;27562;47.524;12.404;2023-06-26T14:19:34;31.50;53.20
41882;DHT22;27562;47.524;12.404;2023-06-26T14:22:00;31.90;54.50
41882;DHT22;27562;47.524;12.404;2023-06-26T14:24:26;32.20;50.80
41882;DHT22;27562;47.524;12.404;2023-06-26T14:26:52;32.20;48.90
41882;DHT22;27562;47.524;12.404;2023-06-26T14:29:17;31.90;49.70
41882;DHT22;27562;47.524;12.404;2023-06-26T14:31:45;31.70;50.80
41882;DHT22;27562;47.524;12.404;2023-06-26T14:34:10;31.60;53.10
41882;DHT22;27562;47.524;12.404;2023-06-26T14:36:36;31.50;53.30
41882;DHT22;27562;47.524;12.404;2023-06-26T14:39:02;31.30;53.50
41882;DHT22;27562;47.524;12.404;2023-06-26T14:41:29;31.10;53.90
41882;DHT22;27562;47.524;12.404;2023-06-26T14:43:55;31.10;54.50
41882;DHT22;27562;47.524;12.404;2023-06-26T14:46:20;30.90;53.40
41882;DHT22;27562;47.524;12.404;2023-06-26T14:48:46;30.80;53.20
41882;DHT22;27562;47.524;12.404;2023-06-26T14:51:11;30.80;53.70
41882;DHT22;27562;47.524;12.404;2023-06-26T14:53:37;31.00;53.50
41882;DHT22;27562;47.524;12.404;2023-06-26T14:56:02;31.20;52.00
41882;DHT22;27562;47.524;12.404;2023-06-26T14:58:28;31.50;51.40
41882;DHT22;27562;47.524;12.404;2023-06-26T15:00:54;31.70;51.10
41882;DHT22;27562;47.524;12.404;2023-06-26T15:03:19;32.00;52.20
41882;DHT22;27562;47.524;12.404;2023-06-26T15:05:45;32.20;54.60
41882;DHT22;27562;47.524;12.404;2023-06-26T15:08:10;32.20;50.40
41882;DHT22;27562;47.524;12.404;2023-06-26T15:10:36;32.10;49.80
41882;DHT22;27562;47.524;12.404;2023-06-26T15:13:02;32.00;49.80
41882;DHT22;27562;47.524;12.404;2023-06-26T15:15:27;31.90;50.70
41882;DHT22;27562;47.524;12.404;2023-06-26T15:17:53;31.60;49.80
41882;DHT22;27562;47.524;12.404;2023-06-26T15:20:18;31.40;49.90
41882;DHT22;27562;47.524;12.404;2023-06-26T15:22:44;31.30;50.80